Time;durP1;ratioP1;P1;durP2;ratioP2;P2;SDS_P1;SDS_P2;PMS_P1;PMS_P2;Temp;Humidity;BMP_temperature;BMP_pressure;BME280_temperature;BME280_humidity;BME280_pressure;Samples;Min_cycle;Max_cycle;Signal;HPM_P1;HPM_P2
2023/02/23 00:01:13;;;;;;;50.03;24.73;;;;;;;7.45;100.00;101333.47;5001447;28;20038;-74
2023/02/23 00:03:39;;;;;;;46.38;23.98;;;;;;;7.44;100.00;101336.94;4989763;28;20049;-74
2023/02/23 00:06:05;;;;;;;47.03;24.10;;;;;;;7.44;100.00;101334.34;4997003;28;20034;-74
2023/02/23 00:08:34;;;;;;;46.90;24.05;;;;;;;7.43;100.00;101330.88;5001257;28;20368;-74
2023/02/23 00:11:00;;;;;;;53.95;25.25;;;;;;;7.44;100.00;101339.56;4997741;28;20227;-74
2023/02/23 00:13:25;;;;;;;48.58;23.40;;;;;;;7.43;100.00;101336.09;5003668;28;20048;-74
2023/02/23 00:15:50;;;;;;;48.00;23.45;;;;;;;7.43;100.00;101328.28;4997581;28;20045;-74
2023/02/23 00:18:16;;;;;;;44.22;22.67;;;;;;;7.44;100.00;101331.75;5004048;28;20042;-74
2023/02/23 00:20:46;;;;;;;44.65;22.95;;;;;;;7.44;100.00;101329.13;4998310;28;20214;-74
2023/02/23 00:23:13;;;;;;;46.53;23.80;;;;;;;7.43;100.00;101341.31;5003716;28;20037;-74
2023/02/23 00:25:41;;;;;;;46.90;22.05;;;;;;;7.44;100.00;101334.34;4997781;28;20046;-74
2023/02/23 00:28:06;;;;;;;45.95;23.88;;;;;;;7.42;100.00;101334.41;5002631;28;20042;-74
2023/02/23 00:30:34;;;;;;;47.90;24.00;;;;;;;7.43;100.00;101335.25;4998372;28;20056;-74
2023/02/23 00:32:59;;;;;;;49.35;23.33;;;;;;;7.43;100.00;101335.25;4993834;28;20046;-74
2023/02/23 00:35:25;;;;;;;46.33;23.98;;;;;;;7.42;100.00;101339.63;5000177;28;20589;-74
2023/02/23 00:37:50;;;;;;;47.03;23.73;;;;;;;7.43;100.00;101337.84;5001738;28;20042;-74
2023/02/23 00:40:17;;;;;;;49.95;23.83;;;;;;;7.43;100.00;101330.88;5002699;28;20044;-74
2023/02/23 00:42:44;;;;;;;46.90;23.27;;;;;;;7.43;100.00;101322.22;5000469;28;20042;-74
2023/02/23 00:45:11;;;;;;;45.97;23.17;;;;;;;7.42;100.00;101329.19;5002901;28;20057;-74
2023/02/23 00:47:41;;;;;;;42.83;22.92;;;;;;;7.43;100.00;101330.03;4998232;28;20049;-74
2023/02/23 00:50:11;;;;;;;44.90;22.13;;;;;;;7.42;100.00;101323.97;5002390;28;20052;-74
2023/02/23 00:52:37;;;;;;;38.70;20.77;;;;;;;7.43;100.00;101324.81;5002747;28;20053;-74
2023/02/23 00:55:03;;;;;;;40.03;20.63;;;;;;;7.43;100.00;101324.81;4998923;28;20042;-74
2023/02/23 00:57:29;;;;;;;44.92;21.65;;;;;;;7.42;100.00;101323.97;5004469;28;20360;-74
2023/02/23 00:59:54;;;;;;;41.25;21.42;;;;;;;7.41;100.00;101324.84;4981135;28;20113;-74
2023/02/23 01:02:20;;;;;;;43.92;22.08;;;;;;;7.42;100.00;101329.19;4994651;28;20046;-74
2023/02/23 01:04:45;;;;;;;47.60;22.83;;;;;;;7.42;100.00;101329.19;4995281;28;20041;-74
2023/02/23 01:07:11;;;;;;;43.72;22.58;;;;;;;7.41;100.00;101326.59;4997589;28;20034;-74
2023/02/23 01:09:37;;;;;;;39.08;21.48;;;;;;;7.41;100.00;101335.28;4999000;28;20037;-74
2023/02/23 01:12:06;;;;;;;44.90;22.80;;;;;;;7.42;100.00;101333.53;4997579;28;20033;-74
2023/02/23 01:14:32;;;;;;;46.13;22.88;;;;;;;7.41;100.00;101332.66;4997224;28;20338;-74
2023/02/23 01:16:57;;;;;;;45.78;22.48;;;;;;;7.41;100.00;101334.44;4997377;28;20345;-74
2023/02/23 01:19:23;;;;;;;45.33;22.20;;;;;;;7.41;100.00;101340.50;4996925;28;20038;-74
2023/02/23 01:21:48;;;;;;;42.72;22.52;;;;;;;7.41;100.00;101335.28;4997334;28;20034;-74
2023/02/23 01:24:14;;;;;;;42.45;22.60;;;;;;;7.40;100.00;101333.53;4997537;28;20244;-74
2023/02/23 01:26:41;;;;;;;44.42;23.05;;;;;;;7.42;100.00;101333.53;4997699;28;20053;-74
2023/02/23 01:29:12;;;;;;;45.08;21.63;;;;;;;7.41;100.00;101331.81;4999892;28;20225;-74
2023/02/23 01:31:40;;;;;;;40.92;21.88;;;;;;;7.41;100.00;101345.69;4996406;28;20038;-74
2023/02/23 01:34:06;;;;;;;40.88;22.15;;;;;;;7.40;100.00;101337.91;4997488;28;20341;-74
2023/02/23 01:36:34;;;;;;;41.97;21.58;;;;;;;7.40;100.00;101336.16;4996375;28;20042;-74
2023/02/23 01:39:01;;;;;;;45.70;22.70;;;;;;;7.41;100.00;101334.44;4996832;28;20107;-74
2023/02/23 01:41:31;;;;;;;37.33;20.52;;;;;;;7.41;100.00;101343.09;4997338;28;20104;-74
2023/02/23 01:44:29;;;;;;;40.47;20.08;;;;;;;7.40;100.00;101341.38;4997517;28;20033;-74
2023/02/23 01:46:55;;;;;;;40.53;20.67;;;;;;;7.40;100.00;101335.31;4988692;28;20049;-74
2023/02/23 01:49:28;;;;;;;37.17;20.27;;;;;;;7.40;100.00;101340.50;4996744;28;20107;-74
2023/02/23 01:52:12;;;;;;;38.63;20.77;;;;;;;7.40;100.00;101340.50;4997981;28;20038;-74
2023/02/23 01:54:49;;;;;;;38.60;20.60;;;;;;;7.40;100.00;101343.13;4998656;28;20373;-74
2023/02/23 01:57:15;;;;;;;38.65;19.85;;;;;;;7.40;100.00;101335.31;4995680;28;20041;-74
2023/02/23 01:59:46;;;;;;;39.95;21.48;;;;;;;7.39;100.00;101342.28;5001055;28;20297;-74
2023/02/23 02:05:04;;;;;;;43.60;21.65;;;;;;;7.39;100.00;101341.41;4994454;28;20070;-74
2023/02/23 02:07:33;;;;;;;38.35;20.60;;;;;;;7.38;100.00;101348.34;5001572;28;20038;-74
2023/02/23 02:12:43;;;;;;;38.47;21.20;;;;;;;7.38;100.00;101347.50;4997080;28;20077;-74
2023/02/23 02:15:18;;;;;;;45.10;21.77;;;;;;;7.38;100.00;101356.19;5012885;28;20042;-74
2023/02/23 02:18:09;;;;;;;31.52;17.60;;;;;;;7.37;100.00;101351.88;4996781;28;20038;-74
2023/02/23 02:20:52;;;;;;;41.10;21.52;;;;;;;7.38;100.00;101353.56;5000866;28;20046;-74
2023/02/23 02:23:27;;;;;;;42.45;21.58;;;;;;;7.38;100.00;101355.31;5000958;28;20046;-74
2023/02/23 02:26:19;;;;;;;38.83;21.17;;;;;;;7.38;100.00;101350.97;5003349;28;20033;-74
2023/02/23 02:28:50;;;;;;;39.85;20.88;;;;;;;7.37;100.00;101346.66;5002335;28;20025;-74
2023/02/23 02:31:19;;;;;;;41.22;20.90;;;;;;;7.37;100.00;101345.78;5008556;28;20092;-74
2023/02/23 02:34:22;;;;;;;34.47;19.27;;;;;;;7.37;100.00;101346.66;5001341;28;20033;-74
2023/02/23 02:37:05;;;;;;;37.83;19.42;;;;;;;7.36;100.00;101342.31;5004726;28;20045;-74
2023/02/23 02:40:14;;;;;;;37.30;20.33;;;;;;;7.37;100.00;101338.84;5009715;28;20356;-74
2023/02/23 02:42:54;;;;;;;42.70;20.92;;;;;;;7.36;100.00;101342.31;4999565;28;20046;-74
2023/02/23 02:45:55;;;;;;;39.75;19.70;;;;;;;7.36;100.00;101337.09;5000543;28;20076;-74
2023/02/23 02:48:25;;;;;;;38.72;19.48;;;;;;;7.34;100.00;101336.28;4916709;29;20044;-74
2023/02/23 02:51:16;;;;;;;37.95;19.08;;;;;;;7.34;100.00;101333.69;4992879;28;20049;-74
2023/02/23 02:53:44;;;;;;;36.60;18.60;;;;;;;7.35;100.00;101334.53;5000896;28;20110;-74
2023/02/23 02:56:18;;;;;;;36.08;19.20;;;;;;;7.33;100.00;101338.91;5006880;28;20375;-74
2023/02/23 02:58:44;;;;;;;36.00;19.30;;;;;;;7.32;100.00;101337.22;5007849;28;20240;-74
2023/02/23 04:18:38;;;;;;;36.55;18.05;;;;;;;7.28;100.00;101368.53;5006282;28;20042;-74
2023/02/23 04:21:05;;;;;;;29.23;16.17;;;;;;;7.29;100.00;101371.97;4999796;28;20261;-74
2023/02/23 04:23:31;;;;;;;32.53;15.70;;;;;;;7.28;100.00;101368.53;4999806;28;20048;-74
2023/02/23 04:25:57;;;;;;;32.67;17.10;;;;;;;7.28;100.00;101370.28;4999488;28;20046;-74
2023/02/23 04:28:24;;;;;;;33.63;16.60;;;;;;;7.28;100.00;101373.75;5007659;28;20037;-74
2023/02/23 04:30:51;;;;;;;29.33;16.38;;;;;;;7.28;100.00;101378.09;5018255;28;20049;-74
2023/02/23 04:33:17;;;;;;;32.95;17.25;;;;;;;7.28;100.00;101372.88;5006580;28;20393;-74
2023/02/23 04:35:42;;;;;;;31.90;16.90;;;;;;;7.28;100.00;101378.09;4997753;28;20058;-74
2023/02/23 04:38:08;;;;;;;29.13;15.50;;;;;;;7.28;100.00;101370.28;5000258;28;20038;-74
2023/02/23 04:40:33;;;;;;;31.17;16.70;;;;;;;7.28;100.00;101370.28;5002243;28;20046;-74
2023/02/23 04:42:59;;;;;;;32.03;16.60;;;;;;;7.27;100.00;101377.22;5013112;28;20226;-74
2023/02/23 04:45:25;;;;;;;30.77;16.17;;;;;;;7.28;100.00;101378.09;5001216;28;20045;-74
2023/02/23 04:47:51;;;;;;;31.88;16.48;;;;;;;7.27;100.00;101385.03;5001167;28;20254;-74
2023/02/23 04:50:17;;;;;;;32.45;17.38;;;;;;;7.27;100.00;101381.56;5017885;28;20046;-74
2023/02/23 04:52:43;;;;;;;29.20;16.10;;;;;;;7.27;100.00;101377.22;5004256;28;20500;-74
2023/02/23 04:55:16;;;;;;;31.67;16.83;;;;;;;7.27;100.00;101385.03;4999871;28;20046;-74
2023/02/23 04:57:42;;;;;;;33.50;16.73;;;;;;;7.27;100.00;101389.41;4993699;28;20240;-74
2023/02/23 05:00:08;;;;;;;37.45;17.48;;;;;;;7.26;100.00;101390.31;5002891;28;20115;-74
2023/02/23 05:02:33;;;;;;;32.92;17.05;;;;;;;7.25;100.00;101391.16;5014562;28;20345;-74
2023/02/23 05:04:59;;;;;;;35.08;17.08;;;;;;;7.26;100.00;101391.16;4999122;28;20328;-74
2023/02/23 05:07:24;;;;;;;32.80;17.08;;;;;;;7.25;100.00;101391.16;4999399;28;20038;-74
2023/02/23 05:09:50;;;;;;;31.60;16.65;;;;;;;7.24;100.00;101403.34;5002205;28;20070;-74
2023/02/23 05:12:15;;;;;;;34.17;17.02;;;;;;;7.24;100.00;101411.16;4997945;28;20069;-74
2023/02/23 05:14:41;;;;;;;36.65;16.83;;;;;;;7.24;100.00;101405.06;5001810;28;20350;-74
2023/02/23 05:17:07;;;;;;;36.42;17.73;;;;;;;7.21;100.00;101410.34;4998538;28;20046;-74
2023/02/23 05:19:32;;;;;;;30.85;17.05;;;;;;;7.22;100.00;101409.44;5011769;28;20050;-74
2023/02/23 05:21:58;;;;;;;31.65;16.35;;;;;;;7.21;100.00;101419.03;5018040;28;20033;-74
2023/02/23 05:24:24;;;;;;;33.53;16.88;;;;;;;7.20;100.00;101417.28;5003602;28;20042;-74
2023/02/23 05:26:50;;;;;;;29.13;15.63;;;;;;;7.20;100.00;101414.69;4998709;28;20042;-74
2023/02/23 05:29:15;;;;;;;31.52;16.10;;;;;;;7.21;100.00;101415.56;5001365;28;20218;-74
2023/02/23 05:31:41;;;;;;;27.55;16.13;;;;;;;7.20;100.00;101419.91;4996629;28;20117;-74
2023/02/23 05:34:06;;;;;;;30.65;16.92;;;;;;;7.20;100.00;101417.28;5001398;28;20050;-74
2023/02/23 05:36:32;;;;;;;29.48;15.82;;;;;;;7.20;100.00;101421.66;4981078;28;20349;-74
2023/02/23 05:38:57;;;;;;;30.67;16.65;;;;;;;7.19;100.00;101425.16;5003527;28;20041;-74
2023/02/23 05:41:22;;;;;;;32.25;16.48;;;;;;;7.17;100.00;101419.09;5017241;28;20227;-74
2023/02/23 05:43:52;;;;;;;31.00;17.15;;;;;;;7.17;100.00;101425.19;5008724;28;20289;-74
2023/02/23 05:46:22;;;;;;;32.33;16.95;;;;;;;7.16;100.00;101425.19;4997610;28;20041;-74
2023/02/23 05:48:47;;;;;;;35.97;18.38;;;;;;;7.16;100.00;101422.59;5002800;28;20321;-74
2023/02/23 05:51:14;;;;;;;32.03;16.55;;;;;;;7.15;100.00;101426.06;4998048;28;20058;-73
2023/02/23 05:53:40;;;;;;;29.42;15.82;;;;;;;7.14;100.00;101424.38;5002005;28;20076;-74
2023/02/23 05:56:07;;;;;;;29.92;15.93;;;;;;;7.11;100.00;101420.94;5000389;28;20042;-74
2023/02/23 05:58:32;;;;;;;31.00;16.10;;;;;;;7.11;100.00;101423.53;5005192;28;20039;-74
2023/02/23 06:00:58;;;;;;;29.80;15.35;;;;;;;7.10;100.00;101424.41;5016165;28;20053;-74
2023/02/23 06:03:24;;;;;;;29.20;15.48;;;;;;;7.10;100.00;101426.16;5011889;28;20045;-74
2023/02/23 06:05:51;;;;;;;28.10;14.68;;;;;;;7.09;100.00;101424.44;4998180;28;20076;-74
2023/02/23 06:08:17;;;;;;;31.33;16.02;;;;;;;7.08;100.00;101425.34;5002256;28;20073;-74
2023/02/23 06:10:42;;;;;;;29.92;16.05;;;;;;;7.08;100.00;101433.16;4997807;28;20097;-74
2023/02/23 06:13:07;;;;;;;28.80;15.63;;;;;;;7.06;100.00;101433.16;5010220;28;20233;-74
2023/02/23 06:15:33;;;;;;;27.60;14.55;;;;;;;7.06;100.00;101427.13;5004993;28;20413;-74
2023/02/23 06:17:58;;;;;;;25.60;13.50;;;;;;;7.07;100.00;101441.84;5016934;28;20041;-74
2023/02/23 06:20:24;;;;;;;29.55;15.68;;;;;;;7.05;100.00;101436.66;5000524;28;20349;-74
2023/02/23 06:22:49;;;;;;;25.55;13.32;;;;;;;7.04;100.00;101442.75;5005410;28;20049;-74
2023/02/23 06:25:14;;;;;;;28.50;14.38;;;;;;;7.05;100.00;101441.84;5001817;28;20073;-74
2023/02/23 06:27:40;;;;;;;32.22;16.00;;;;;;;7.05;100.00;101447.06;5003676;28;20049;-74
2023/02/23 06:30:07;;;;;;;25.55;14.23;;;;;;;7.04;100.00;101450.56;5004030;28;20325;-74
2023/02/23 06:32:33;;;;;;;31.85;15.90;;;;;;;7.06;100.00;101440.13;5001169;28;20069;-74
2023/02/23 06:34:58;;;;;;;33.22;17.13;;;;;;;7.05;100.00;101447.06;5005374;28;20046;-74
2023/02/23 06:37:24;;;;;;;33.53;15.50;;;;;;;7.06;100.00;101447.94;5000906;28;20046;-74
2023/02/23 06:39:49;;;;;;;33.78;16.27;;;;;;;7.05;100.00;101447.06;5006001;28;20048;-74
2023/02/23 06:42:15;;;;;;;30.25;14.90;;;;;;;7.06;100.00;101450.56;5001196;28;20046;-74
2023/02/23 06:44:40;;;;;;;31.50;15.32;;;;;;;7.06;100.00;101455.75;5005059;28;20073;-74
2023/02/23 06:47:05;;;;;;;32.42;15.55;;;;;;;7.07;100.00;101454.88;5001653;28;20105;-74
2023/02/23 06:49:31;;;;;;;35.90;16.20;;;;;;;7.05;100.00;101454.88;5005053;28;20091;-74
2023/02/23 06:51:57;;;;;;;38.33;17.90;;;;;;;7.06;100.00;101458.38;5002356;28;20022;-74
2023/02/23 06:54:22;;;;;;;34.05;16.15;;;;;;;7.06;100.00;101458.38;5004621;28;20034;-74
2023/02/23 06:56:48;;;;;;;33.80;15.93;;;;;;;7.06;100.00;101463.56;5004808;28;20045;-74
2023/02/23 06:59:14;;;;;;;38.10;17.30;;;;;;;7.07;100.00;101467.88;5012320;28;20032;-75
2023/02/23 07:01:41;;;;;;;38.05;16.83;;;;;;;7.07;100.00;101479.16;5001288;28;20250;-74
2023/02/23 07:04:06;;;;;;;37.78;16.92;;;;;;;7.06;100.00;101481.81;5000411;28;20368;-74
2023/02/23 07:06:32;;;;;;;40.55;17.42;;;;;;;7.07;100.00;101486.13;5012002;28;20097;-74
2023/02/23 07:08:57;;;;;;;40.55;18.55;;;;;;;7.06;100.00;101487.88;5009320;28;20065;-74
2023/02/23 07:11:23;;;;;;;37.83;17.67;;;;;;;7.07;100.00;101496.53;5008796;28;20338;-74
2023/02/23 07:13:48;;;;;;;44.17;18.50;;;;;;;7.08;100.00;101511.28;5015951;28;20368;-74
2023/02/23 07:16:15;;;;;;;39.28;17.80;;;;;;;7.07;100.00;101513.00;5001098;28;20080;-74
2023/02/23 07:18:40;;;;;;;39.20;17.30;;;;;;;7.07;100.00;101523.44;4999700;28;20101;-74
2023/02/23 07:21:06;;;;;;;50.13;20.17;;;;;;;7.06;100.00;101521.72;5009239;28;20077;-74
2023/02/23 07:23:32;;;;;;;49.20;20.15;;;;;;;7.06;100.00;101526.09;5018158;28;20252;-74
2023/02/23 07:25:58;;;;;;;42.63;19.60;;;;;;;7.07;100.00;101530.41;5001027;28;20237;-74
2023/02/23 07:28:26;;;;;;;48.88;19.85;;;;;;;7.06;100.00;101533.91;4998054;28;20030;-74
2023/02/23 07:30:57;;;;;;;43.25;17.80;;;;;;;7.06;100.00;101532.16;5003735;28;20065;-74
2023/02/23 07:33:23;;;;;;;45.50;18.42;;;;;;;7.07;100.00;101536.47;4998824;28;20250;-74
2023/02/23 07:35:50;;;;;;;51.03;20.75;;;;;;;7.08;100.00;101542.53;4994160;28;20114;-74
2023/02/23 07:38:15;;;;;;;48.92;19.67;;;;;;;7.07;100.00;101544.28;4996866;28;20053;-74
2023/02/23 07:40:41;;;;;;;54.92;21.20;;;;;;;7.07;100.00;101546.88;5003705;28;20042;-74
2023/02/23 07:43:07;;;;;;;48.08;19.92;;;;;;;7.07;100.00;101552.09;5000623;28;20045;-74
2023/02/23 07:45:32;;;;;;;49.05;20.55;;;;;;;7.10;100.00;101551.19;4999599;28;20071;-74
2023/02/23 07:47:58;;;;;;;49.15;20.35;;;;;;;7.10;100.00;101548.59;4999311;28;20057;-74
2023/02/23 07:50:25;;;;;;;47.75;19.52;;;;;;;7.10;100.00;101557.25;4998341;28;20355;-74
2023/02/23 07:52:51;;;;;;;50.95;19.60;;;;;;;7.11;100.00;101563.31;4999436;28;20289;-74
2023/02/23 07:55:16;;;;;;;44.13;17.90;;;;;;;7.13;100.00;101558.09;4999131;28;20214;-74
2023/02/23 07:57:42;;;;;;;51.20;19.55;;;;;;;7.13;100.00;101558.97;5001268;28;20038;-74
2023/02/23 08:00:08;;;;;;;42.70;18.33;;;;;;;7.16;100.00;101565.88;4999152;28;20046;-74
2023/02/23 08:02:33;;;;;;;61.97;24.77;;;;;;;7.14;100.00;101568.50;4998621;28;20113;-74
2023/02/23 08:04:59;;;;;;;52.47;21.50;;;;;;;7.15;100.00;101574.56;5000534;28;20056;-74
2023/02/23 08:07:24;;;;;;;58.75;21.90;;;;;;;7.14;100.00;101573.69;4998843;28;20046;-74
2023/02/23 08:09:51;;;;;;;47.47;20.13;;;;;;;7.14;100.00;101571.09;4999729;28;20077;-74
2023/02/23 08:12:16;;;;;;;60.40;22.20;;;;;;;7.16;100.00;101576.28;5000042;28;20049;-74
2023/02/23 08:14:42;;;;;;;49.67;18.98;;;;;;;7.17;100.00;101583.19;4998782;28;20046;-74
2023/02/23 08:17:08;;;;;;;52.38;20.40;;;;;;;7.18;100.00;101585.78;4998832;28;20133;-74
2023/02/23 08:19:34;;;;;;;48.22;19.70;;;;;;;7.18;100.00;101591.00;4998136;28;20089;-74
2023/02/23 08:21:59;;;;;;;56.50;22.15;;;;;;;7.18;100.00;101595.34;4996590;28;20045;-74
2023/02/23 08:24:25;;;;;;;55.05;20.88;;;;;;;7.18;100.00;101592.75;4996943;28;20226;-74
2023/02/23 08:26:51;;;;;;;53.55;20.83;;;;;;;7.19;100.00;101591.88;4998442;28;20038;-74
2023/02/23 08:29:17;;;;;;;59.97;23.38;;;;;;;7.18;100.00;101585.78;4997046;28;20034;-74
2023/02/23 08:31:43;;;;;;;60.22;21.52;;;;;;;7.18;100.00;101595.34;4996882;28;20136;-74
2023/02/23 08:34:09;;;;;;;59.22;23.70;;;;;;;7.17;100.00;101596.22;4994600;28;20061;-74
2023/02/23 08:36:34;;;;;;;65.18;23.17;;;;;;;7.17;100.00;101599.72;4994094;28;20046;-74
2023/02/23 08:39:00;;;;;;;53.95;20.77;;;;;;;7.18;100.00;101600.56;4997900;28;20065;-74
2023/02/23 08:41:26;;;;;;;52.85;20.63;;;;;;;7.17;100.00;101604.94;4999189;28;20104;-74
2023/02/23 08:43:52;;;;;;;51.00;20.55;;;;;;;7.17;100.00;101606.66;4996061;28;20445;-74
2023/02/23 08:46:19;;;;;;;51.15;19.88;;;;;;;7.17;100.00;101611.84;4995739;28;20039;-74
2023/02/23 08:48:45;;;;;;;57.00;21.77;;;;;;;7.16;100.00;101621.44;4997307;28;20361;-74
2023/02/23 08:51:11;;;;;;;52.35;19.52;;;;;;;7.14;100.00;101618.00;4995462;28;20041;-74
2023/02/23 08:53:37;;;;;;;45.10;18.77;;;;;;;7.15;100.00;101622.34;4998467;28;20053;-74
2023/02/23 08:56:05;;;;;;;44.35;18.30;;;;;;;7.15;100.00;101622.34;4996373;28;20065;-74
2023/02/23 08:58:32;;;;;;;43.28;18.27;;;;;;;7.15;100.00;101618.84;5000444;28;20447;-74
2023/02/23 09:00:58;;;;;;;39.03;16.67;;;;;;;7.15;100.00;101621.44;4997946;28;20121;-74
2023/02/23 09:03:25;;;;;;;39.15;15.60;;;;;;;7.16;100.00;101631.00;4996152;28;20057;-74
2023/02/23 09:05:51;;;;;;;34.53;14.70;;;;;;;7.15;100.00;101626.66;5000335;28;20345;-74
2023/02/23 09:08:16;;;;;;;37.70;14.50;;;;;;;7.14;100.00;101625.81;5003953;28;20104;-74
2023/02/23 09:10:45;;;;;;;32.88;14.15;;;;;;;7.14;100.00;101632.75;4997301;28;20060;-74
2023/02/23 09:13:11;;;;;;;28.30;13.00;;;;;;;7.13;100.00;101626.69;4999159;28;20034;-74
2023/02/23 09:15:38;;;;;;;29.60;13.20;;;;;;;7.13;100.00;101633.63;4999975;28;20372;-74
2023/02/23 09:18:04;;;;;;;27.85;13.23;;;;;;;7.14;100.00;101638.81;4994576;28;20496;-74
2023/02/23 09:20:30;;;;;;;20.30;10.82;;;;;;;7.16;100.00;101644.03;4993491;28;20052;-74
2023/02/23 09:22:55;;;;;;;22.83;11.70;;;;;;;7.17;100.00;101650.94;4992421;28;20042;-74
2023/02/23 09:25:22;;;;;;;21.23;11.05;;;;;;;7.18;100.00;101658.72;4992765;28;20038;-73
2023/02/23 09:27:51;;;;;;;17.45;10.45;;;;;;;7.17;100.00;101654.44;4994694;28;20223;-74
2023/02/23 09:30:19;;;;;;;21.35;10.60;;;;;;;7.18;100.00;101653.53;4996503;28;20068;-74
2023/02/23 09:32:54;;;;;;;25.88;11.95;;;;;;;7.17;100.00;101651.81;4997518;28;20085;-74
2023/02/23 09:35:23;;;;;;;17.45;9.65;;;;;;;7.19;100.00;101652.66;4991599;28;20030;-74
2023/02/23 09:37:54;;;;;;;26.85;11.85;;;;;;;7.19;100.00;101657.00;4996447;28;20042;-74
2023/02/23 09:40:22;;;;;;;17.33;10.00;;;;;;;7.20;100.00;101650.91;4996390;28;20076;-73
2023/02/23 09:43:01;;;;;;;21.20;10.30;;;;;;;7.23;100.00;101648.25;5000417;28;20200;-73
2023/02/23 09:45:43;;;;;;;;;;;;;;;7.23;100.00;101650.88;4992789;28;20034;-73
2023/02/23 09:48:16;;;;;;;22.83;11.43;;;;;;;7.24;100.00;101656.06;5006836;28;19917;-73
2023/02/23 09:50:53;;;;;;;21.77;11.15;;;;;;;7.25;100.00;101659.53;4995422;28;20259;-73
2023/02/23 09:53:25;;;;;;;24.42;11.38;;;;;;;7.23;100.00;101654.31;4998097;28;20030;-73
2023/02/23 09:55:53;;;;;;;24.13;10.90;;;;;;;7.24;100.00;101652.56;4996002;28;20042;-73
2023/02/23 09:58:26;;;;;;;18.93;10.93;;;;;;;7.24;100.00;101658.66;5002353;28;20367;-73
2023/02/23 10:01:37;;;;;;;20.20;11.40;;;;;;;7.21;100.00;101653.50;4996262;28;20120;-73
2023/02/23 10:04:09;;;;;;;22.30;11.68;;;;;;;7.21;100.00;101656.09;4954310;28;20289;-73
2023/02/23 10:06:35;;;;;;;24.52;12.05;;;;;;;7.20;100.00;101656.97;4992212;28;20038;-73
2023/02/23 10:09:20;;;;;;;24.40;13.05;;;;;;;7.20;100.00;101661.31;4993558;28;20042;-73
2023/02/23 10:11:55;;;;;;;22.85;12.20;;;;;;;7.20;100.00;101663.94;4992258;28;20045;-73
2023/02/23 10:15:05;;;;;;;21.65;11.38;;;;;;;7.23;100.00;101663.91;4996877;28;20041;-73
2023/02/23 10:17:53;;;;;;;18.67;10.70;;;;;;;7.25;100.00;101665.59;4991435;28;20054;-73
2023/02/23 10:20:33;;;;;;;21.33;11.23;;;;;;;7.26;100.00;101667.31;4991575;28;20113;-73
2023/02/23 10:23:05;;;;;;;21.27;11.25;;;;;;;7.27;100.00;101662.97;5002912;28;20309;-73
2023/02/23 10:25:36;;;;;;;22.58;10.90;;;;;;;7.28;100.00;101672.53;4997339;28;20053;-73
2023/02/23 10:28:01;;;;;;;24.48;12.07;;;;;;;7.28;100.00;101670.78;4997835;28;20358;-73
2023/02/23 10:30:29;;;;;;;20.52;11.77;;;;;;;7.29;100.00;101671.63;4996812;28;20039;-73
2023/02/23 10:33:15;;;;;;;23.13;11.90;;;;;;;7.32;100.00;101675.94;4998387;28;20357;-74
2023/02/23 10:35:42;;;;;;;24.50;11.70;;;;;;;7.33;100.00;101675.03;4998984;28;20038;-73
2023/02/23 10:38:17;;;;;;;25.35;11.55;;;;;;;7.34;100.00;101685.44;4996990;28;20334;-73
2023/02/23 10:40:47;;;;;;;23.85;11.20;;;;;;;7.36;100.00;101677.63;4993865;28;20061;-73
2023/02/23 10:43:13;;;;;;;24.55;11.63;;;;;;;7.37;100.00;101681.94;4997431;28;20416;-73
2023/02/23 10:45:44;;;;;;;21.13;11.20;;;;;;;7.37;100.00;101690.63;4996252;28;20372;-73
2023/02/23 10:48:22;;;;;;;24.38;10.82;;;;;;;7.37;100.00;101682.81;5002893;28;20029;-73
2023/02/23 10:50:49;;;;;;;21.13;11.07;;;;;;;7.38;100.00;101681.06;4994924;28;20042;-73
2023/02/23 10:53:25;;;;;;;20.02;10.48;;;;;;;7.38;100.00;101678.47;4998061;28;20065;-73
2023/02/23 10:56:14;;;;;;;21.70;10.25;;;;;;;7.38;100.00;101681.06;5001280;28;20030;-73
2023/02/23 10:58:45;;;;;;;22.00;10.32;;;;;;;7.39;100.00;101690.63;4995786;28;20046;-73
2023/02/23 11:01:11;;;;;;;21.70;10.38;;;;;;;7.37;100.00;101692.34;5004032;28;20030;-73
2023/02/23 11:03:41;;;;;;;18.85;9.57;;;;;;;7.37;100.00;101695.84;4998091;28;20070;-73
2023/02/23 11:06:26;;;;;;;18.13;10.40;;;;;;;7.36;100.00;101688.91;4997201;28;20041;-73
2023/02/23 11:08:51;;;;;;;24.83;12.02;;;;;;;7.36;100.00;101703.69;5000007;28;20046;-73
2023/02/23 11:11:24;;;;;;;20.65;10.65;;;;;;;7.35;100.00;101692.41;4999640;28;20042;-73
2023/02/23 11:13:50;;;;;;;25.38;10.93;;;;;;;7.37;100.00;101697.56;5002628;28;20033;-73
2023/02/23 11:16:19;;;;;;;15.68;8.93;;;;;;;7.36;100.00;101704.53;5001336;28;20053;-73
2023/02/23 11:19:03;;;;;;;;;;;;;;;7.36;100.00;101704.53;5001239;28;20199;-73
2023/02/23 11:21:32;;;;;;;16.90;9.60;;;;;;;7.36;100.00;101704.53;4997709;28;19992;-73
2023/02/23 11:24:05;;;;;;;18.27;8.77;;;;;;;7.35;100.00;101702.81;4999744;28;20034;-73
2023/02/23 11:26:40;;;;;;;18.35;9.80;;;;;;;7.36;100.00;101701.94;4999297;28;20090;-73
2023/02/23 11:29:28;;;;;;;20.33;9.98;;;;;;;7.36;100.00;101696.72;4997481;28;20038;-73
2023/02/23 11:31:57;;;;;;;20.13;9.45;;;;;;;7.38;100.00;101696.69;4973036;28;20357;-73
2023/02/23 11:34:34;;;;;;;19.65;10.05;;;;;;;7.41;100.00;101691.44;4997996;28;20299;-73
2023/02/23 11:37:04;;;;;;;20.20;9.80;;;;;;;7.43;100.00;101687.94;4998592;28;20030;-73
2023/02/23 11:39:30;;;;;;;20.13;10.00;;;;;;;7.44;100.00;101689.66;4998466;28;20140;-73
2023/02/23 11:42:16;;;;;;;26.50;11.07;;;;;;;7.44;100.00;101679.25;4999073;28;20073;-73
2023/02/23 11:44:42;;;;;;;21.52;10.75;;;;;;;7.45;100.00;101685.31;4998966;28;20371;-73
2023/02/23 11:47:18;;;;;;;27.17;11.50;;;;;;;7.46;100.00;101692.25;4998936;28;20045;-73
2023/02/23 11:49:45;;;;;;;24.73;10.50;;;;;;;7.47;100.00;101697.41;4994038;28;20483;-73
2023/02/23 11:52:18;;;;;;;21.48;11.35;;;;;;;7.49;100.00;101694.78;4998973;28;20214;-73
2023/02/23 11:54:56;;;;;;;22.10;10.82;;;;;;;7.50;100.00;101692.16;4998639;28;20410;-73
2023/02/23 11:57:25;;;;;;;23.60;11.30;;;;;;;7.53;100.00;101687.78;4997859;28;20128;-73
2023/02/23 11:59:51;;;;;;;25.13;10.32;;;;;;;7.52;100.00;101683.47;4998505;28;20026;-73
2023/02/23 12:02:24;;;;;;;26.50;11.48;;;;;;;7.51;100.00;101693.03;4998000;28;20052;-73
2023/02/23 12:05:01;;;;;;;20.83;10.27;;;;;;;7.53;100.00;101695.63;4995931;28;20325;-73
2023/02/23 12:07:42;;;;;;;21.83;10.88;;;;;;;7.55;100.00;101693.84;4997394;28;20050;-73
2023/02/23 12:10:29;;;;;;;24.48;10.98;;;;;;;7.55;100.00;101688.63;4995270;28;20041;-73
2023/02/23 12:13:26;;;;;;;20.92;10.88;;;;;;;7.56;100.00;101693.81;4995879;28;20046;-73
2023/02/23 12:16:01;;;;;;;23.38;10.13;;;;;;;7.56;100.00;101686.00;4976810;28;20128;-73
2023/02/23 12:18:38;;;;;;;24.73;10.30;;;;;;;7.57;100.00;101679.06;4996351;28;20034;-73
2023/02/23 12:21:12;;;;;;;21.95;10.57;;;;;;;7.58;100.00;101689.44;4996890;28;20045;-73
2023/02/23 12:23:42;;;;;;;20.50;10.75;;;;;;;7.59;100.00;101692.94;4994907;28;20399;-73
2023/02/23 12:26:16;;;;;;;24.73;9.93;;;;;;;7.60;100.00;101687.69;4998166;28;20038;-73
2023/02/23 12:28:52;;;;;;;24.48;9.88;;;;;;;7.62;100.00;101682.44;4995413;28;20042;-73
2023/02/23 12:31:47;;;;;;;22.85;10.18;;;;;;;7.63;100.00;101677.22;4997041;28;20030;-73
2023/02/23 12:34:34;;;;;;;19.48;10.27;;;;;;;7.64;100.00;101684.16;4999042;28;20093;-73
2023/02/23 12:37:11;;;;;;;23.88;11.35;;;;;;;7.66;100.00;101682.38;5000703;28;20061;-73
2023/02/23 12:39:43;;;;;;;25.48;11.30;;;;;;;7.68;100.00;101690.19;5002805;28;20049;-73
2023/02/23 12:42:34;;;;;;;22.25;11.10;;;;;;;7.69;100.00;101682.34;5004103;28;20108;-73
2023/02/23 12:45:02;;;;;;;29.02;12.20;;;;;;;7.72;100.00;101680.59;4997580;28;20038;-73